sensor_id;sensor_type;location;lat;lon;timestamp;pressure;altitude;pressure_sealevel;temperature;humidity
49102;BME280;34913;47.520;19.186;2023-02-22T00:00:21;99859.09;;;7.52;81.20
49102;BME280;34913;47.520;19.186;2023-02-22T00:02:52;99857.84;;;7.45;81.37
49102;BME280;34913;47.520;19.186;2023-02-22T00:05:25;99858.59;;;7.34;82.33
49102;BME280;34913;47.520;19.186;2023-02-22T00:07:51;99852.69;;;7.31;82.41
49102;BME280;34913;47.520;19.186;2023-02-22T00:10:17;99863.03;;;7.34;82.41
49102;BME280;34913;47.520;19.186;2023-02-22T00:12:46;99855.22;;;7.32;82.22
49102;BME280;34913;47.520;19.186;2023-02-22T00:15:19;99840.28;;;7.20;82.70
49102;BME280;34913;47.520;19.186;2023-02-22T00:17:45;99845.09;;;7.26;82.56
49102;BME280;34913;47.520;19.186;2023-02-22T00:20:11;99848.66;;;7.38;82.25
49102;BME280;34913;47.520;19.186;2023-02-22T00:22:45;99855.19;;;7.45;81.86
49102;BME280;34913;47.520;19.186;2023-02-22T00:25:15;99856.47;;;7.39;81.86
49102;BME280;34913;47.520;19.186;2023-02-22T00:27:47;99849.09;;;7.32;81.97
49102;BME280;34913;47.520;19.186;2023-02-22T00:30:15;99855.22;;;7.32;81.98
49102;BME280;34913;47.520;19.186;2023-02-22T00:32:44;99851.78;;;7.19;82.13
49102;BME280;34913;47.520;19.186;2023-02-22T00:35:11;99859.78;;;7.17;82.86
49102;BME280;34913;47.520;19.186;2023-02-22T00:37:37;99860.13;;;7.13;82.83
49102;BME280;34913;47.520;19.186;2023-02-22T00:40:07;99861.81;;;7.01;83.83
49102;BME280;34913;47.520;19.186;2023-02-22T00:42:33;99864.81;;;6.96;84.37
49102;BME280;34913;47.520;19.186;2023-02-22T00:44:58;99864.88;;;6.95;84.34
49102;BME280;34913;47.520;19.186;2023-02-22T00:47:24;99867.03;;;6.90;84.48
49102;BME280;34913;47.520;19.186;2023-02-22T00:49:50;99868.28;;;6.97;85.05
49102;BME280;34913;47.520;19.186;2023-02-22T00:52:15;99873.69;;;6.95;84.60
49102;BME280;34913;47.520;19.186;2023-02-22T00:54:41;99868.47;;;6.94;85.13
49102;BME280;34913;47.520;19.186;2023-02-22T00:57:06;99868.69;;;6.91;85.16
49102;BME280;34913;47.520;19.186;2023-02-22T00:59:32;99874.72;;;7.06;85.23
49102;BME280;34913;47.520;19.186;2023-02-22T01:01:57;99862.97;;;7.22;84.59
49102;BME280;34913;47.520;19.186;2023-02-22T01:04:23;99865.38;;;7.25;83.69
49102;BME280;34913;47.520;19.186;2023-02-22T01:06:48;99866.66;;;7.20;84.08
49102;BME280;34913;47.520;19.186;2023-02-22T01:09:13;99860.03;;;7.14;84.62
49102;BME280;34913;47.520;19.186;2023-02-22T01:11:39;99866.97;;;7.28;83.98
49102;BME280;34913;47.520;19.186;2023-02-22T01:14:05;99863.28;;;7.18;84.18
49102;BME280;34913;47.520;19.186;2023-02-22T01:16:34;99862.00;;;7.36;83.95
49102;BME280;34913;47.520;19.186;2023-02-22T01:18:59;99859.53;;;7.46;83.55
49102;BME280;34913;47.520;19.186;2023-02-22T01:21:25;99857.78;;;7.57;82.95
49102;BME280;34913;47.520;19.186;2023-02-22T01:23:51;99850.81;;;7.56;82.82
49102;BME280;34913;47.520;19.186;2023-02-22T01:26:16;99852.50;;;7.57;82.47
49102;BME280;34913;47.520;19.186;2023-02-22T01:28:42;99859.03;;;7.65;82.13
49102;BME280;34913;47.520;19.186;2023-02-22T01:31:08;99854.09;;;7.60;82.17
49102;BME280;34913;47.520;19.186;2023-02-22T01:33:34;99856.63;;;7.62;82.51
49102;BME280;34913;47.520;19.186;2023-02-22T01:35:59;99855.97;;;7.58;82.30
49102;BME280;34913;47.520;19.186;2023-02-22T01:38:25;99862.69;;;7.51;82.38
49102;BME280;34913;47.520;19.186;2023-02-22T01:40:51;99861.88;;;7.38;82.94
49102;BME280;34913;47.520;19.186;2023-02-22T01:43:25;99850.78;;;7.33;83.06
49102;BME280;34913;47.520;19.186;2023-02-22T01:45:57;99849.66;;;7.24;83.71
49102;BME280;34913;47.520;19.186;2023-02-22T01:48:41;99843.88;;;7.19;83.94
49102;BME280;34913;47.520;19.186;2023-02-22T01:51:14;99852.22;;;7.13;84.16
49102;BME280;34913;47.520;19.186;2023-02-22T01:53:49;99850.84;;;7.07;84.36
49102;BME280;34913;47.520;19.186;2023-02-22T01:56:17;99848.63;;;7.01;84.27
49102;BME280;34913;47.520;19.186;2023-02-22T01:58:46;99850.31;;;7.02;84.45
49102;BME280;34913;47.520;19.186;2023-02-22T02:01:13;99847.78;;;7.00;84.73
49102;BME280;34913;47.520;19.186;2023-02-22T02:03:39;99854.66;;;6.90;84.49
49102;BME280;34913;47.520;19.186;2023-02-22T02:06:11;99848.66;;;6.88;84.97
49102;BME280;34913;47.520;19.186;2023-02-22T02:08:54;99842.31;;;6.78;85.20
49102;BME280;34913;47.520;19.186;2023-02-22T02:11:24;99845.09;;;6.64;85.64
49102;BME280;34913;47.520;19.186;2023-02-22T02:13:55;99843.91;;;6.55;86.81
49102;BME280;34913;47.520;19.186;2023-02-22T02:16:30;99846.75;;;6.52;87.37
49102;BME280;34913;47.520;19.186;2023-02-22T02:18:59;99842.66;;;6.48;87.22
49102;BME280;34913;47.520;19.186;2023-02-22T02:21:40;99852.44;;;6.46;86.93
49102;BME280;34913;47.520;19.186;2023-02-22T02:24:31;99849.91;;;6.44;87.59
49102;BME280;34913;47.520;19.186;2023-02-22T02:29:54;99846.13;;;6.49;86.96
49102;BME280;34913;47.520;19.186;2023-02-22T02:43:11;99858.84;;;6.17;87.91
49102;BME280;34913;47.520;19.186;2023-02-22T02:45:42;99849.41;;;6.00;88.07
49102;BME280;34913;47.520;19.186;2023-02-22T02:48:10;99851.97;;;5.87;88.61
49102;BME280;34913;47.520;19.186;2023-02-22T02:50:41;99850.31;;;5.86;89.32
49102;BME280;34913;47.520;19.186;2023-02-22T02:53:08;99850.19;;;5.87;89.41
49102;BME280;34913;47.520;19.186;2023-02-22T02:55:36;99852.81;;;5.87;89.43
49102;BME280;34913;47.520;19.186;2023-02-22T02:58:05;99853.22;;;5.81;89.36
49102;BME280;34913;47.520;19.186;2023-02-22T03:00:34;99857.53;;;5.82;89.20
49102;BME280;34913;47.520;19.186;2023-02-22T03:06:06;99861.72;;;5.72;89.02
49102;BME280;34913;47.520;19.186;2023-02-22T03:14:28;99852.19;;;5.57;88.85
49102;BME280;34913;47.520;19.186;2023-02-22T03:17:07;99858.50;;;5.54;88.64
49102;BME280;34913;47.520;19.186;2023-02-22T03:19:37;99859.44;;;5.53;88.32
49102;BME280;34913;47.520;19.186;2023-02-22T03:22:14;99851.81;;;5.49;88.44
49102;BME280;34913;47.520;19.186;2023-02-22T03:24:55;99862.47;;;5.47;89.07
49102;BME280;34913;47.520;19.186;2023-02-22T03:27:50;99850.06;;;5.35;89.00
49102;BME280;34913;47.520;19.186;2023-02-22T03:30:45;99857.31;;;5.31;89.32
49102;BME280;34913;47.520;19.186;2023-02-22T03:33:12;99861.06;;;5.27;89.77
49102;BME280;34913;47.520;19.186;2023-02-22T03:35:44;99864.47;;;5.29;89.89
49102;BME280;34913;47.520;19.186;2023-02-22T03:38:15;99861.84;;;5.29;90.42
49102;BME280;34913;47.520;19.186;2023-02-22T03:40:45;99863.22;;;5.35;89.56
49102;BME280;34913;47.520;19.186;2023-02-22T03:43:17;99863.44;;;5.32;89.87
49102;BME280;34913;47.520;19.186;2023-02-22T03:45:46;99855.72;;;5.29;90.29
49102;BME280;34913;47.520;19.186;2023-02-22T03:48:46;99848.59;;;5.17;89.91
49102;BME280;34913;47.520;19.186;2023-02-22T03:51:16;99857.91;;;5.08;90.23
49102;BME280;34913;47.520;19.186;2023-02-22T03:53:42;99857.34;;;5.03;90.82
49102;BME280;34913;47.520;19.186;2023-02-22T03:56:21;99870.59;;;5.01;91.27
49102;BME280;34913;47.520;19.186;2023-02-22T03:58:48;99873.03;;;5.04;91.22
49102;BME280;34913;47.520;19.186;2023-02-22T04:01:14;99867.75;;;5.19;90.89
49102;BME280;34913;47.520;19.186;2023-02-22T04:03:40;99875.47;;;5.22;90.87
49102;BME280;34913;47.520;19.186;2023-02-22T04:06:07;99876.59;;;5.18;89.99
49102;BME280;34913;47.520;19.186;2023-02-22T04:08:33;99879.06;;;4.92;91.79
49102;BME280;34913;47.520;19.186;2023-02-22T04:10:58;99880.94;;;4.90;92.72
49102;BME280;34913;47.520;19.186;2023-02-22T04:13:25;99886.53;;;5.13;92.18
49102;BME280;34913;47.520;19.186;2023-02-22T04:15:51;99875.75;;;5.17;91.65
49102;BME280;34913;47.520;19.186;2023-02-22T04:18:17;99879.13;;;5.19;90.93
49102;BME280;34913;47.520;19.186;2023-02-22T04:20:42;99886.94;;;5.07;91.08
49102;BME280;34913;47.520;19.186;2023-02-22T04:23:09;99883.16;;;4.96;91.02
49102;BME280;34913;47.520;19.186;2023-02-22T04:25:35;99879.41;;;4.86;91.66
49102;BME280;34913;47.520;19.186;2023-02-22T04:28:01;99883.09;;;4.84;91.54
49102;BME280;34913;47.520;19.186;2023-02-22T04:30:27;99882.06;;;4.86;91.67
49102;BME280;34913;47.520;19.186;2023-02-22T04:32:55;99878.78;;;4.83;91.20
49102;BME280;34913;47.520;19.186;2023-02-22T04:35:21;99876.63;;;4.75;91.21
49102;BME280;34913;47.520;19.186;2023-02-22T04:37:46;99881.19;;;4.71;91.33
49102;BME280;34913;47.520;19.186;2023-02-22T04:40:12;99874.59;;;4.64;91.24
49102;BME280;34913;47.520;19.186;2023-02-22T04:42:38;99883.53;;;4.62;91.94
49102;BME280;34913;47.520;19.186;2023-02-22T04:45:05;99885.69;;;4.55;91.63
49102;BME280;34913;47.520;19.186;2023-02-22T04:47:32;99884.19;;;4.51;90.90
49102;BME280;34913;47.520;19.186;2023-02-22T04:49:58;99883.69;;;4.44;90.80
49102;BME280;34913;47.520;19.186;2023-02-22T04:52:25;99885.00;;;4.37;91.59
49102;BME280;34913;47.520;19.186;2023-02-22T04:54:51;99889.09;;;4.27;92.03
49102;BME280;34913;47.520;19.186;2023-02-22T04:57:16;99886.47;;;4.27;92.61
49102;BME280;34913;47.520;19.186;2023-02-22T04:59:42;99888.56;;;4.36;92.31
49102;BME280;34913;47.520;19.186;2023-02-22T05:02:07;99888.06;;;4.30;91.46
49102;BME280;34913;47.520;19.186;2023-02-22T05:04:33;99894.81;;;4.19;91.90
49102;BME280;34913;47.520;19.186;2023-02-22T05:06:58;99887.09;;;4.16;91.79
49102;BME280;34913;47.520;19.186;2023-02-22T05:09:24;99889.59;;;4.04;92.96
49102;BME280;34913;47.520;19.186;2023-02-22T05:11:49;99890.38;;;3.90;94.11
49102;BME280;34913;47.520;19.186;2023-02-22T05:14:15;99885.28;;;3.87;96.70
49102;BME280;34913;47.520;19.186;2023-02-22T05:16:40;99887.22;;;3.99;99.59
49102;BME280;34913;47.520;19.186;2023-02-22T05:19:05;99892.69;;;4.10;100.00
49102;BME280;34913;47.520;19.186;2023-02-22T05:21:32;99888.72;;;4.33;100.00
49102;BME280;34913;47.520;19.186;2023-02-22T05:23:57;99901.41;;;4.27;99.31
49102;BME280;34913;47.520;19.186;2023-02-22T05:26:23;99901.34;;;4.42;98.47
49102;BME280;34913;47.520;19.186;2023-02-22T05:28:49;99897.59;;;4.46;97.60
49102;BME280;34913;47.520;19.186;2023-02-22T05:31:14;99903.25;;;4.55;95.99
49102;BME280;34913;47.520;19.186;2023-02-22T05:33:40;99909.88;;;4.46;94.58
49102;BME280;34913;47.520;19.186;2023-02-22T05:36:06;99905.88;;;4.25;94.15
49102;BME280;34913;47.520;19.186;2023-02-22T05:38:32;99915.81;;;4.19;94.67
49102;BME280;34913;47.520;19.186;2023-02-22T05:40:59;99924.34;;;4.23;94.47
49102;BME280;34913;47.520;19.186;2023-02-22T05:43:24;99921.31;;;4.15;94.36
49102;BME280;34913;47.520;19.186;2023-02-22T05:45:50;99937.50;;;4.23;94.85
49102;BME280;34913;47.520;19.186;2023-02-22T05:48:15;99936.31;;;4.29;93.88
49102;BME280;34913;47.520;19.186;2023-02-22T05:50:40;99935.47;;;4.28;93.75
49102;BME280;34913;47.520;19.186;2023-02-22T05:53:06;99940.03;;;4.25;93.16
49102;BME280;34913;47.520;19.186;2023-02-22T05:55:31;99944.63;;;4.21;92.99
49102;BME280;34913;47.520;19.186;2023-02-22T05:57:57;99943.00;;;4.18;92.74
49102;BME280;34913;47.520;19.186;2023-02-22T06:00:26;99941.75;;;4.10;92.72
49102;BME280;34913;47.520;19.186;2023-02-22T06:03:03;99946.84;;;4.13;93.10
49102;BME280;34913;47.520;19.186;2023-02-22T06:05:29;99952.94;;;4.13;92.86
49102;BME280;34913;47.520;19.186;2023-02-22T06:07:55;99960.97;;;4.10;92.97
49102;BME280;34913;47.520;19.186;2023-02-22T06:10:21;99960.31;;;4.07;92.70
49102;BME280;34913;47.520;19.186;2023-02-22T06:12:48;99964.47;;;4.11;93.36
49102;BME280;34913;47.520;19.186;2023-02-22T06:15:14;99970.19;;;4.17;93.41
49102;BME280;34913;47.520;19.186;2023-02-22T06:17:40;99967.31;;;4.22;93.49
49102;BME280;34913;47.520;19.186;2023-02-22T06:20:11;99967.00;;;4.12;93.02
49102;BME280;34913;47.520;19.186;2023-02-22T06:22:37;99968.00;;;4.10;94.13
49102;BME280;34913;47.520;19.186;2023-02-22T06:25:04;99971.13;;;4.16;94.66
49102;BME280;34913;47.520;19.186;2023-02-22T06:27:30;99978.50;;;4.26;95.09
49102;BME280;34913;47.520;19.186;2023-02-22T06:29:56;99983.25;;;4.35;95.08
49102;BME280;34913;47.520;19.186;2023-02-22T06:32:21;99977.56;;;4.42;94.66
49102;BME280;34913;47.520;19.186;2023-02-22T06:34:47;99976.19;;;4.51;94.84
49102;BME280;34913;47.520;19.186;2023-02-22T06:37:12;99976.38;;;4.62;94.74
49102;BME280;34913;47.520;19.186;2023-02-22T06:39:38;99980.94;;;4.74;94.12
49102;BME280;34913;47.520;19.186;2023-02-22T06:42:04;99972.31;;;4.87;94.29
49102;BME280;34913;47.520;19.186;2023-02-22T06:44:29;99984.25;;;4.92;94.63
49102;BME280;34913;47.520;19.186;2023-02-22T06:46:55;99974.97;;;5.01;95.26
49102;BME280;34913;47.520;19.186;2023-02-22T06:49:20;99977.53;;;5.17;95.59
49102;BME280;34913;47.520;19.186;2023-02-22T06:51:46;99973.28;;;5.28;95.99
49102;BME280;34913;47.520;19.186;2023-02-22T06:54:12;99975.91;;;5.43;96.40
49102;BME280;34913;47.520;19.186;2023-02-22T06:56:37;99976.66;;;5.59;97.43
49102;BME280;34913;47.520;19.186;2023-02-22T06:59:03;99984.28;;;5.78;98.09
49102;BME280;34913;47.520;19.186;2023-02-22T07:01:29;99988.00;;;6.02;97.73
49102;BME280;34913;47.520;19.186;2023-02-22T07:03:54;99983.91;;;6.25;96.51
49102;BME280;34913;47.520;19.186;2023-02-22T07:06:20;99980.59;;;6.49;95.68
49102;BME280;34913;47.520;19.186;2023-02-22T07:08:45;99984.34;;;6.71;94.75
49102;BME280;34913;47.520;19.186;2023-02-22T07:11:11;99982.47;;;6.99;92.82
49102;BME280;34913;47.520;19.186;2023-02-22T07:13:36;99973.84;;;7.22;91.33
49102;BME280;34913;47.520;19.186;2023-02-22T07:16:02;99978.06;;;7.50;89.54
49102;BME280;34913;47.520;19.186;2023-02-22T07:18:27;99975.13;;;7.79;87.48
49102;BME280;34913;47.520;19.186;2023-02-22T07:20:52;99988.19;;;8.06;86.05
49102;BME280;34913;47.520;19.186;2023-02-22T07:23:19;99979.28;;;8.31;84.65
49102;BME280;34913;47.520;19.186;2023-02-22T07:25:44;99981.56;;;8.48;83.92
49102;BME280;34913;47.520;19.186;2023-02-22T07:28:10;99987.06;;;8.69;82.57
49102;BME280;34913;47.520;19.186;2023-02-22T07:30:36;99988.31;;;8.87;82.33
49102;BME280;34913;47.520;19.186;2023-02-22T07:33:07;99979.09;;;9.04;80.67
49102;BME280;34913;47.520;19.186;2023-02-22T07:35:48;99972.25;;;9.24;79.48
49102;BME280;34913;47.520;19.186;2023-02-22T07:38:15;99972.50;;;9.55;78.23
49102;BME280;34913;47.520;19.186;2023-02-22T07:40:41;99970.94;;;9.74;77.80
49102;BME280;34913;47.520;19.186;2023-02-22T07:45:38;99981.25;;;10.22;75.04
49102;BME280;34913;47.520;19.186;2023-02-22T07:48:05;99980.88;;;10.27;74.32
49102;BME280;34913;47.520;19.186;2023-02-22T07:50:32;99972.81;;;10.49;74.18
49102;BME280;34913;47.520;19.186;2023-02-22T07:53:00;99977.91;;;10.73;73.54
49102;BME280;34913;47.520;19.186;2023-02-22T07:55:28;99982.72;;;11.00;72.44
49102;BME280;34913;47.520;19.186;2023-02-22T07:57:56;99975.03;;;11.28;71.04
49102;BME280;34913;47.520;19.186;2023-02-22T08:00:30;99983.78;;;11.39;70.35
49102;BME280;34913;47.520;19.186;2023-02-22T08:02:58;99981.69;;;11.43;70.48
49102;BME280;34913;47.520;19.186;2023-02-22T08:05:29;99981.31;;;11.48;70.96
49102;BME280;34913;47.520;19.186;2023-02-22T08:07:55;99981.31;;;11.48;70.91
49102;BME280;34913;47.520;19.186;2023-02-22T08:10:22;99984.28;;;11.54;70.11
49102;BME280;34913;47.520;19.186;2023-02-22T08:12:48;99978.56;;;11.59;70.17
49102;BME280;34913;47.520;19.186;2023-02-22T08:15:20;99985.63;;;11.69;68.51
49102;BME280;34913;47.520;19.186;2023-02-22T08:17:46;99987.97;;;11.63;69.81
49102;BME280;34913;47.520;19.186;2023-02-22T08:20:11;99991.09;;;11.47;70.15
49102;BME280;34913;47.520;19.186;2023-02-22T08:22:37;99991.25;;;11.45;70.50
49102;BME280;34913;47.520;19.186;2023-02-22T08:25:03;99989.00;;;11.51;70.37
49102;BME280;34913;47.520;19.186;2023-02-22T08:27:30;99992.81;;;11.58;70.02
49102;BME280;34913;47.520;19.186;2023-02-22T08:29:56;99994.84;;;11.75;69.77
49102;BME280;34913;47.520;19.186;2023-02-22T08:32:22;99992.69;;;11.90;69.15
49102;BME280;34913;47.520;19.186;2023-02-22T08:34:48;99991.75;;;12.00;68.74
49102;BME280;34913;47.520;19.186;2023-02-22T08:37:15;100000.03;;;12.07;67.50
49102;BME280;34913;47.520;19.186;2023-02-22T08:39:40;99997.56;;;12.25;67.70
49102;BME280;34913;47.520;19.186;2023-02-22T08:42:07;99997.59;;;12.44;66.19
49102;BME280;34913;47.520;19.186;2023-02-22T08:44:38;99999.53;;;12.42;66.66
49102;BME280;34913;47.520;19.186;2023-02-22T08:47:04;99998.53;;;13.01;64.65
49102;BME280;34913;47.520;19.186;2023-02-22T08:49:31;99992.09;;;13.13;63.99
49102;BME280;34913;47.520;19.186;2023-02-22T08:51:56;99997.97;;;13.07;64.49
49102;BME280;34913;47.520;19.186;2023-02-22T08:54:22;99993.66;;;12.77;65.35
49102;BME280;34913;47.520;19.186;2023-02-22T08:56:48;99990.31;;;12.66;65.43
49102;BME280;34913;47.520;19.186;2023-02-22T08:59:14;100006.44;;;12.64;64.86
49102;BME280;34913;47.520;19.186;2023-02-22T09:01:40;100002.75;;;12.26;66.63
49102;BME280;34913;47.520;19.186;2023-02-22T09:04:05;100003.50;;;11.98;68.14
49102;BME280;34913;47.520;19.186;2023-02-22T09:06:31;100002.81;;;12.06;68.45
49102;BME280;34913;47.520;19.186;2023-02-22T09:08:56;100000.09;;;12.26;67.82
49102;BME280;34913;47.520;19.186;2023-02-22T09:11:22;100007.69;;;12.41;66.40
49102;BME280;34913;47.520;19.186;2023-02-22T09:13:47;100006.66;;;12.32;67.02
49102;BME280;34913;47.520;19.186;2023-02-22T09:16:13;100000.09;;;12.36;66.37
49102;BME280;34913;47.520;19.186;2023-02-22T09:18:38;100002.22;;;12.52;65.80
49102;BME280;34913;47.520;19.186;2023-02-22T09:21:04;99998.13;;;12.28;65.94
49102;BME280;34913;47.520;19.186;2023-02-22T09:23:30;100002.06;;;12.34;66.55
49102;BME280;34913;47.520;19.186;2023-02-22T09:25:55;99997.53;;;12.15;67.09
49102;BME280;34913;47.520;19.186;2023-02-22T09:28:20;99995.63;;;11.87;67.30
49102;BME280;34913;47.520;19.186;2023-02-22T09:30:46;99995.34;;;11.90;68.25
49102;BME280;34913;47.520;19.186;2023-02-22T09:33:16;99993.88;;;12.16;68.31
49102;BME280;34913;47.520;19.186;2023-02-22T09:35:44;99994.31;;;12.12;67.90
49102;BME280;34913;47.520;19.186;2023-02-22T09:38:19;99995.22;;;12.41;67.29
49102;BME280;34913;47.520;19.186;2023-02-22T09:40:52;99990.13;;;12.48;66.21
49102;BME280;34913;47.520;19.186;2023-02-22T09:46:20;99985.28;;;12.72;65.38
49102;BME280;34913;47.520;19.186;2023-02-22T09:51:27;99988.06;;;12.51;66.01
49102;BME280;34913;47.520;19.186;2023-02-22T09:53:57;99984.00;;;12.67;65.44
49102;BME280;34913;47.520;19.186;2023-02-22T09:56:25;99987.06;;;12.91;64.84
49102;BME280;34913;47.520;19.186;2023-02-22T09:58:56;99977.34;;;13.09;63.45
49102;BME280;34913;47.520;19.186;2023-02-22T10:01:30;99989.19;;;12.88;64.60
49102;BME280;34913;47.520;19.186;2023-02-22T10:04:18;99986.34;;;12.99;64.77
49102;BME280;34913;47.520;19.186;2023-02-22T10:07:22;99986.66;;;12.86;64.10
49102;BME280;34913;47.520;19.186;2023-02-22T10:09:51;99983.06;;;13.34;63.97
49102;BME280;34913;47.520;19.186;2023-02-22T10:17:59;99977.34;;;13.66;60.67
49102;BME280;34913;47.520;19.186;2023-02-22T10:20:56;99981.59;;;13.22;61.38
49102;BME280;34913;47.520;19.186;2023-02-22T10:23:48;99978.78;;;13.23;61.80
49102;BME280;34913;47.520;19.186;2023-02-22T10:26:22;99972.00;;;13.19;61.57
49102;BME280;34913;47.520;19.186;2023-02-22T10:29:08;99967.06;;;13.44;62.59
49102;BME280;34913;47.520;19.186;2023-02-22T10:31:41;99962.59;;;13.72;60.38
49102;BME280;34913;47.520;19.186;2023-02-22T10:34:17;99953.22;;;13.95;59.55
49102;BME280;34913;47.520;19.186;2023-02-22T10:36:47;99957.41;;;14.61;57.04
49102;BME280;34913;47.520;19.186;2023-02-22T10:39:34;99948.72;;;14.59;57.20
49102;BME280;34913;47.520;19.186;2023-02-22T10:42:03;99952.31;;;14.49;55.83
49102;BME280;34913;47.520;19.186;2023-02-22T10:44:39;99948.59;;;14.15;58.33
49102;BME280;34913;47.520;19.186;2023-02-22T10:47:07;99948.41;;;13.71;59.86
49102;BME280;34913;47.520;19.186;2023-02-22T10:49:36;99948.56;;;13.69;59.90
49102;BME280;34913;47.520;19.186;2023-02-22T10:52:12;99941.81;;;13.75;58.66
49102;BME280;34913;47.520;19.186;2023-02-22T10:54:41;99948.50;;;14.07;58.49
49102;BME280;34913;47.520;19.186;2023-02-22T10:57:10;99935.91;;;13.99;58.04
49102;BME280;34913;47.520;19.186;2023-02-22T10:59:38;99935.13;;;13.89;58.98
49102;BME280;34913;47.520;19.186;2023-02-22T11:02:30;99935.50;;;13.76;58.45
49102;BME280;34913;47.520;19.186;2023-02-22T11:04:58;99931.25;;;13.83;58.68
49102;BME280;34913;47.520;19.186;2023-02-22T11:07:33;99930.59;;;13.72;59.37
49102;BME280;34913;47.520;19.186;2023-02-22T11:10:02;99928.47;;;13.75;59.49
49102;BME280;34913;47.520;19.186;2023-02-22T11:12:32;99932.63;;;13.60;59.34
49102;BME280;34913;47.520;19.186;2023-02-22T11:17:50;99922.38;;;13.08;60.37
49102;BME280;34913;47.520;19.186;2023-02-22T11:20:27;99923.56;;;12.86;61.44
49102;BME280;34913;47.520;19.186;2023-02-22T11:22:55;99931.28;;;12.90;61.03
49102;BME280;34913;47.520;19.186;2023-02-22T11:25:36;99925.25;;;12.88;61.22
49102;BME280;34913;47.520;19.186;2023-02-22T11:28:09;99922.84;;;12.94;61.19
49102;BME280;34913;47.520;19.186;2023-02-22T11:30:39;99924.78;;;13.02;60.74
49102;BME280;34913;47.520;19.186;2023-02-22T11:33:19;99925.75;;;13.20;59.99
49102;BME280;34913;47.520;19.186;2023-02-22T11:35:49;99917.47;;;13.23;58.87
49102;BME280;34913;47.520;19.186;2023-02-22T11:41:16;99921.00;;;13.04;60.45
49102;BME280;34913;47.520;19.186;2023-02-22T11:43:44;99920.56;;;13.09;59.82
49102;BME280;34913;47.520;19.186;2023-02-22T11:46:20;99918.19;;;13.06;59.95
49102;BME280;34913;47.520;19.186;2023-02-22T11:48:59;99910.69;;;13.19;59.59
49102;BME280;34913;47.520;19.186;2023-02-22T11:51:44;99912.81;;;13.16;60.04
49102;BME280;34913;47.520;19.186;2023-02-22T12:00:06;99908.53;;;12.95;61.95
49102;BME280;34913;47.520;19.186;2023-02-22T12:08:25;99911.19;;;13.05;61.73
49102;BME280;34913;47.520;19.186;2023-02-22T12:11:20;99905.28;;;13.01;61.55
49102;BME280;34913;47.520;19.186;2023-02-22T12:19:37;99907.56;;;12.96;61.84
49102;BME280;34913;47.520;19.186;2023-02-22T12:22:11;99900.13;;;13.00;61.47
49102;BME280;34913;47.520;19.186;2023-02-22T12:25:28;99906.84;;;12.94;61.92
49102;BME280;34913;47.520;19.186;2023-02-22T12:27:34;99907.56;;;12.86;61.75
49102;BME280;34913;47.520;19.186;2023-02-22T12:30:06;99902.25;;;12.77;63.13
49102;BME280;34913;47.520;19.186;2023-02-22T12:32:46;99897.47;;;12.90;61.66
49102;BME280;34913;47.520;19.186;2023-02-22T12:35:22;99904.06;;;12.96;61.53
49102;BME280;34913;47.520;19.186;2023-02-22T12:43:11;99890.75;;;12.96;62.32
49102;BME280;34913;47.520;19.186;2023-02-22T12:45:56;99890.03;;;13.03;61.43
49102;BME280;34913;47.520;19.186;2023-02-22T12:48:54;99877.25;;;13.07;61.02
49102;BME280;34913;47.520;19.186;2023-02-22T12:51:31;99891.34;;;13.17;61.16
49102;BME280;34913;47.520;19.186;2023-02-22T12:56:58;99877.09;;;13.08;61.77
49102;BME280;34913;47.520;19.186;2023-02-22T13:02:18;99875.81;;;13.12;61.26
49102;BME280;34913;47.520;19.186;2023-02-22T13:04:45;99873.16;;;13.12;61.01
49102;BME280;34913;47.520;19.186;2023-02-22T13:26:23;99870.31;;;13.24;61.39
49102;BME280;34913;47.520;19.186;2023-02-22T13:29:11;99864.69;;;13.27;60.86
49102;BME280;34913;47.520;19.186;2023-02-22T13:31:53;99863.84;;;13.26;61.29
49102;BME280;34913;47.520;19.186;2023-02-22T13:37:40;99867.47;;;12.98;62.43
49102;BME280;34913;47.520;19.186;2023-02-22T13:45:22;99874.91;;;12.84;62.41
49102;BME280;34913;47.520;19.186;2023-02-22T13:51:13;99868.94;;;12.73;64.19
49102;BME280;34913;47.520;19.186;2023-02-22T13:53:54;99869.72;;;12.93;63.29
49102;BME280;34913;47.520;19.186;2023-02-22T13:56:24;99867.59;;;12.96;62.90
49102;BME280;34913;47.520;19.186;2023-02-22T13:58:54;99867.59;;;12.96;63.23
49102;BME280;34913;47.520;19.186;2023-02-22T14:09:51;99865.16;;;13.12;62.94
49102;BME280;34913;47.520;19.186;2023-02-22T14:17:40;99861.97;;;12.99;63.53
49102;BME280;34913;47.520;19.186;2023-02-22T14:22:48;99869.44;;;12.96;62.99
49102;BME280;34913;47.520;19.186;2023-02-22T14:25:37;99855.84;;;12.89;63.65
49102;BME280;34913;47.520;19.186;2023-02-22T14:28:34;99860.88;;;12.92;63.18
49102;BME280;34913;47.520;19.186;2023-02-22T14:31:11;99860.94;;;12.73;64.15
49102;BME280;34913;47.520;19.186;2023-02-22T14:33:59;99862.19;;;12.69;64.81
49102;BME280;34913;47.520;19.186;2023-02-22T14:36:33;99864.31;;;12.65;64.80
49102;BME280;34913;47.520;19.186;2023-02-22T14:44:33;99870.19;;;12.69;65.01
49102;BME280;34913;47.520;19.186;2023-02-22T14:47:03;99860.69;;;12.56;64.98
49102;BME280;34913;47.520;19.186;2023-02-22T14:49:34;99866.72;;;12.58;65.27
49102;BME280;34913;47.520;19.186;2023-02-22T14:52:05;99861.09;;;12.62;64.75
49102;BME280;34913;47.520;19.186;2023-02-22T14:57:25;99859.28;;;12.72;64.63
49102;BME280;34913;47.520;19.186;2023-02-22T15:02:23;99853.53;;;12.67;64.63
49102;BME280;34913;47.520;19.186;2023-02-22T15:04:54;99862.22;;;12.59;65.58
49102;BME280;34913;47.520;19.186;2023-02-22T15:07:28;99852.72;;;12.56;64.80
49102;BME280;34913;47.520;19.186;2023-02-22T15:10:23;99858.44;;;12.52;65.74
49102;BME280;34913;47.520;19.186;2023-02-22T15:12:55;99858.59;;;12.50;65.99
49102;BME280;34913;47.520;19.186;2023-02-22T15:15:41;99855.38;;;12.56;65.04
49102;BME280;34913;47.520;19.186;2023-02-22T15:21:01;99851.31;;;12.43;66.06